createdAt,value
2022-10-23T00:01:48.070Z,13.85
2022-10-23T00:04:45.547Z,14.11
2022-10-23T00:07:21.632Z,13.59
2022-10-23T00:09:56.271Z,14.11
2022-10-23T00:12:58.338Z,13.95
2022-10-23T00:18:31.023Z,14.13
2022-10-23T00:23:50.256Z,14.46
2022-10-23T00:26:23.089Z,14.36
2022-10-23T00:29:08.094Z,14.36
2022-10-23T00:34:42.955Z,14.74
2022-10-23T00:37:46.715Z,14.51
2022-10-23T00:40:35.690Z,14.80
2022-10-23T00:43:16.019Z,14.53
2022-10-23T00:49:34.508Z,14.69
2022-10-23T00:52:16.480Z,14.71
2022-10-23T00:57:46.237Z,13.65
2022-10-23T01:03:39.951Z,14.29
2022-10-23T01:07:05.284Z,14.43
2022-10-23T01:10:05.337Z,14.25
2022-10-23T01:16:07.488Z,14.41
2022-10-23T01:19:14.936Z,14.60
2022-10-23T01:25:25.979Z,14.41
2022-10-23T01:31:14.757Z,12.50
2022-10-23T01:34:10.773Z,13.56
2022-10-23T01:36:58.539Z,13.99
2022-10-23T01:42:28.321Z,13.80
2022-10-23T01:45:15.280Z,14.21
2022-10-23T01:47:56.189Z,13.97
2022-10-23T01:50:43.816Z,14.09
2022-10-23T01:53:26.903Z,13.89
2022-10-23T01:56:34.700Z,13.75
2022-10-23T01:59:20.963Z,13.82
2022-10-23T02:02:28.651Z,13.83
2022-10-23T02:05:08.929Z,13.19
2022-10-23T02:07:55.950Z,13.53
2022-10-23T02:11:02.065Z,13.95
2022-10-23T02:14:00.666Z,14.00
2022-10-23T02:16:51.765Z,14.30
2022-10-23T02:19:34.091Z,14.35
2022-10-23T02:25:33.253Z,14.24
2022-10-23T02:28:22.587Z,14.39
2022-10-23T02:31:03.207Z,14.48
2022-10-23T02:34:00.917Z,14.54
2022-10-23T02:36:53.095Z,14.53
2022-10-23T02:42:11.585Z,14.73
2022-10-23T02:45:03.578Z,14.74
2022-10-23T03:43:09.205Z,13.99
2022-10-23T03:52:13.284Z,13.68
2022-10-23T04:26:19.008Z,13.25
2022-10-23T04:29:09.949Z,13.18
2022-10-23T04:32:18.532Z,13.98
2022-10-23T04:35:18.959Z,13.29
2022-10-23T04:41:19.402Z,14.00
2022-10-23T04:47:27.722Z,14.55
2022-10-23T04:50:42.553Z,13.34
2022-10-23T04:56:27.292Z,13.43
2022-10-23T04:59:12.785Z,13.53
2022-10-23T05:05:20.200Z,14.15
2022-10-23T05:17:06.258Z,13.64
2022-10-23T05:19:46.132Z,13.89
2022-10-23T05:22:24.034Z,13.64
2022-10-23T05:25:05.985Z,12.86
2022-10-23T05:27:40.723Z,12.61
2022-10-23T05:30:45.735Z,12.98
2022-10-23T05:36:56.542Z,13.97
2022-10-23T05:39:46.430Z,14.15
2022-10-23T05:42:23.005Z,14.05
2022-10-23T05:45:11.211Z,13.89
2022-10-23T05:48:22.753Z,14.01
2022-10-23T05:51:25.582Z,14.45
2022-10-23T05:54:17.384Z,14.01
2022-10-23T05:56:58.075Z,13.56
2022-10-23T06:02:39.008Z,13.57
2022-10-23T06:05:22.159Z,13.94
2022-10-23T06:08:05.320Z,13.89
2022-10-23T06:10:39.397Z,13.37
2022-10-23T06:13:11.079Z,13.80
2022-10-23T06:16:12.171Z,13.21
2022-10-23T06:19:01.882Z,14.00
2022-10-23T06:21:49.213Z,14.36
2022-10-23T06:24:38.571Z,14.45
2022-10-23T06:27:12.938Z,13.93
2022-10-23T06:29:56.575Z,13.96
2022-10-23T06:32:34.976Z,13.89
2022-10-23T06:35:25.928Z,14.44
2022-10-23T06:37:58.274Z,13.68
2022-10-23T06:40:37.170Z,12.81
2022-10-23T06:43:10.088Z,13.51
2022-10-23T06:48:21.754Z,13.35
2022-10-23T06:50:58.821Z,14.18
2022-10-23T06:53:32.127Z,13.66
2022-10-23T06:56:14.986Z,13.54
2022-10-23T06:58:52.071Z,13.43
2022-10-23T07:04:06.927Z,13.64
2022-10-23T07:06:46.037Z,14.27
2022-10-23T07:09:30.867Z,13.98
2022-10-23T07:12:08.993Z,13.64
2022-10-23T07:14:47.412Z,13.13
2022-10-23T07:17:21.599Z,13.53
2022-10-23T07:19:50.809Z,14.02
2022-10-23T07:22:18.742Z,13.62
2022-10-23T07:24:56.216Z,13.17
2022-10-23T07:27:30.807Z,13.37
2022-10-23T07:29:58.667Z,13.80
2022-10-23T07:32:29.307Z,14.24
2022-10-23T07:34:57.228Z,14.14
2022-10-23T07:37:27.070Z,14.46
2022-10-23T07:40:02.022Z,13.96
2022-10-23T07:42:33.131Z,14.24
2022-10-23T07:45:00.282Z,13.94
2022-10-23T07:47:29.281Z,14.09
2022-10-23T07:50:02.861Z,14.44
2022-10-23T07:52:32.182Z,14.39
2022-10-23T07:55:02.535Z,14.35
2022-10-23T07:57:31.233Z,14.49
2022-10-23T07:59:58.071Z,14.50
2022-10-23T08:02:25.095Z,14.92
2022-10-23T08:04:56.278Z,15.50
2022-10-23T08:07:27.764Z,15.35
2022-10-23T08:09:55.640Z,15.51
2022-10-23T08:12:23.829Z,15.66
2022-10-23T08:14:56.128Z,15.05
2022-10-23T08:17:26.341Z,14.53
2022-10-23T08:19:55.759Z,15.07
2022-10-23T08:22:24.289Z,15.04
2022-10-23T08:24:56.389Z,15.03
2022-10-23T08:50:42.466Z,14.81
2022-10-23T08:53:48.164Z,14.77
2022-10-23T08:56:21.147Z,15.05
2022-10-23T08:58:54.597Z,14.68
2022-10-23T09:01:27.599Z,14.76
2022-10-23T09:03:54.953Z,14.80
2022-10-23T09:06:25.180Z,14.87
2022-10-23T09:08:53.185Z,15.08
2022-10-23T09:11:37.904Z,15.12
2022-10-23T09:14:25.386Z,14.99
2022-10-23T09:16:52.607Z,14.92
2022-10-23T09:19:26.529Z,15.12
2022-10-23T09:21:56.618Z,15.22
2022-10-23T09:24:25.822Z,15.21
2022-10-23T09:27:17.327Z,15.24
2022-10-23T09:29:49.760Z,15.39
2022-10-23T09:32:38.509Z,16.01
2022-10-23T09:35:05.842Z,15.58
2022-10-23T09:37:40.346Z,15.58
2022-10-23T09:40:16.917Z,15.25
2022-10-23T09:43:10.168Z,15.42
2022-10-23T09:45:38.745Z,14.80
2022-10-23T09:48:13.531Z,15.07
2022-10-23T09:50:51.466Z,15.25
2022-10-23T09:53:23.328Z,15.43
2022-10-23T10:19:06.405Z,16.23
2022-10-23T10:21:38.857Z,16.61
2022-10-23T10:24:09.076Z,16.10
2022-10-23T10:26:56.212Z,16.42
2022-10-23T10:29:31.959Z,16.63
2022-10-23T10:32:04.284Z,17.14
2022-10-23T10:34:51.616Z,17.55
2022-10-23T10:37:28.837Z,17.87
2022-10-23T10:40:11.749Z,17.84
2022-10-23T10:42:38.684Z,18.26
2022-10-23T10:45:15.974Z,18.15
2022-10-23T10:47:45.916Z,18.09
2022-10-23T10:50:45.416Z,18.04
2022-10-23T10:53:21.356Z,18.17
2022-10-23T10:55:50.836Z,18.46
2022-10-23T10:58:21.788Z,18.04
2022-10-23T11:00:50.713Z,18.06
2022-10-23T11:03:28.726Z,18.31
2022-10-23T11:08:28.754Z,17.82
2022-10-23T11:10:59.017Z,17.93
2022-10-23T11:13:37.016Z,17.40
2022-10-23T11:16:09.181Z,17.53
2022-10-23T11:18:36.648Z,17.88
2022-10-23T11:21:08.420Z,17.45
2022-10-23T11:23:42.870Z,17.78
2022-10-23T11:26:24.189Z,18.02
2022-10-23T11:29:13.987Z,17.22
2022-10-23T11:31:53.731Z,17.41
2022-10-23T11:34:39.348Z,17.23
2022-10-23T11:37:07.037Z,17.13
2022-10-23T11:39:34.937Z,17.03
2022-10-23T11:42:04.759Z,17.09
2022-10-23T11:44:50.587Z,16.88
2022-10-23T11:47:39.236Z,16.96
2022-10-23T11:50:06.995Z,17.35
2022-10-23T11:52:45.741Z,17.18
2022-10-23T11:55:19.363Z,17.37
2022-10-23T11:58:02.595Z,16.48
2022-10-23T12:00:30.170Z,17.00
2022-10-23T12:02:59.131Z,17.08
2022-10-23T12:05:35.756Z,16.93
2022-10-23T12:08:04.597Z,17.06
2022-10-23T12:10:34.710Z,17.17
2022-10-23T12:13:05.148Z,17.24
2022-10-23T12:15:33.020Z,17.26
2022-10-23T12:18:14.752Z,17.48
2022-10-23T12:20:41.630Z,17.27
2022-10-23T12:23:27.306Z,17.23
2022-10-23T12:25:57.158Z,17.27
2022-10-23T12:28:35.406Z,17.66
2022-10-23T12:31:20.533Z,17.43
2022-10-23T12:33:58.901Z,17.69
2022-10-23T12:36:25.908Z,17.51
2022-10-23T12:38:55.001Z,17.40
2022-10-23T12:41:24.607Z,17.62
2022-10-23T12:43:59.179Z,17.36
2022-10-23T12:46:34.277Z,17.58
2022-10-23T12:49:02.655Z,17.60
2022-10-23T12:51:30.535Z,18.11
2022-10-23T12:53:57.422Z,18.13
2022-10-23T12:56:29.420Z,18.19
2022-10-23T12:59:01.736Z,18.07
2022-10-23T13:01:30.280Z,17.65
2022-10-23T13:04:03.119Z,18.27
2022-10-23T13:06:29.886Z,17.77
2022-10-23T13:08:57.527Z,18.11
2022-10-23T13:11:25.216Z,18.66
2022-10-23T13:13:52.391Z,18.52
2022-10-23T13:16:23.366Z,18.91
2022-10-23T13:18:50.319Z,18.55
2022-10-23T13:21:18.955Z,19.02
2022-10-23T13:23:46.171Z,19.05
2022-10-23T13:26:32.026Z,18.58
2022-10-23T13:28:59.117Z,18.76
2022-10-23T13:31:34.565Z,18.77
2022-10-23T13:34:01.433Z,19.11
2022-10-23T13:36:29.567Z,19.05
2022-10-23T13:38:59.077Z,19.00
2022-10-23T13:41:26.679Z,19.36
2022-10-23T13:43:53.443Z,18.95
2022-10-23T13:46:21.993Z,18.23
2022-10-23T13:48:49.340Z,18.23
2022-10-23T13:51:38.845Z,18.17
2022-10-23T13:54:14.796Z,18.36
2022-10-23T13:56:41.752Z,18.21
2022-10-23T13:59:10.427Z,17.68
2022-10-23T14:01:37.435Z,18.01
2022-10-23T14:04:05.030Z,17.58
2022-10-23T14:06:32.498Z,17.63
2022-10-23T14:08:59.278Z,17.75
2022-10-23T14:11:26.498Z,17.30
2022-10-23T15:05:11.460Z,18.43
2022-10-23T15:07:48.974Z,17.84
2022-10-23T15:12:49.698Z,17.76
2022-10-23T15:15:16.419Z,18.05
2022-10-23T15:17:44.225Z,17.62
2022-10-23T15:20:11.371Z,17.88
2022-10-23T15:22:38.140Z,17.98
2022-10-23T15:25:05.130Z,18.12
2022-10-23T15:27:31.947Z,17.75
2022-10-23T15:29:58.843Z,17.82
2022-10-23T15:32:25.582Z,17.75
2022-10-23T15:34:53.965Z,18.18
2022-10-23T15:37:20.821Z,18.07
2022-10-23T15:39:47.735Z,18.24
2022-10-23T15:42:14.586Z,18.54
2022-10-23T15:44:41.629Z,18.23
2022-10-23T15:47:08.642Z,18.02
2022-10-23T15:49:35.721Z,17.98
2022-10-23T15:52:04.494Z,18.41
2022-10-23T15:54:32.877Z,17.80
2022-10-23T15:57:00.901Z,17.54
2022-10-23T15:59:28.949Z,16.94
2022-10-23T16:01:56.574Z,17.35
2022-10-23T16:04:23.803Z,17.05
2022-10-23T16:06:50.895Z,17.86
2022-10-23T16:09:17.862Z,17.57
2022-10-23T16:11:44.717Z,17.95
2022-10-23T16:14:16.272Z,17.73
2022-10-23T16:16:43.412Z,17.75
2022-10-23T16:19:10.744Z,17.85
2022-10-23T16:21:37.622Z,17.75
2022-10-23T16:24:05.995Z,17.48
2022-10-23T16:26:33.390Z,17.55
2022-10-23T16:29:03.509Z,17.83
2022-10-23T16:31:30.906Z,17.54
2022-10-23T16:33:59.221Z,17.06
2022-10-23T16:36:26.466Z,16.17
2022-10-23T16:38:53.663Z,16.57
2022-10-23T16:41:20.535Z,16.93
2022-10-23T16:43:47.585Z,17.44
2022-10-23T16:46:15.950Z,17.58
2022-10-23T16:48:43.371Z,16.90
2022-10-23T16:51:11.583Z,16.79
2022-10-23T16:53:38.750Z,16.87
2022-10-23T16:56:06.388Z,16.64
2022-10-23T16:58:33.962Z,16.60
2022-10-23T17:01:02.435Z,16.89
2022-10-23T17:03:30.637Z,16.34
2022-10-23T17:06:01.655Z,16.87
2022-10-23T17:08:29.379Z,16.30
2022-10-23T17:11:10.790Z,16.78
2022-10-23T17:13:39.499Z,16.80
2022-10-23T17:16:12.723Z,16.09
2022-10-23T17:18:43.673Z,15.63
2022-10-23T17:21:11.324Z,15.73
2022-10-23T17:23:38.282Z,16.33
2022-10-23T17:26:08.573Z,16.18
2022-10-23T17:28:40.149Z,16.45
2022-10-23T17:31:13.388Z,16.37
2022-10-23T17:33:40.844Z,16.00
2022-10-23T17:36:08.013Z,16.11
2022-10-23T17:38:36.073Z,15.94
2022-10-23T17:41:11.921Z,16.46
2022-10-23T17:43:38.887Z,16.15
2022-10-23T17:46:06.959Z,15.80
2022-10-23T17:48:35.475Z,15.93
2022-10-23T17:51:03.720Z,16.20
2022-10-23T17:53:30.657Z,16.40
2022-10-23T17:55:57.728Z,16.57
2022-10-23T17:58:27.501Z,16.50
2022-10-23T18:00:54.542Z,16.71
2022-10-23T18:03:21.550Z,17.09
2022-10-23T18:05:49.766Z,17.27
2022-10-23T18:08:17.562Z,16.91
2022-10-23T18:10:44.418Z,16.63
2022-10-23T18:13:11.226Z,16.57
2022-10-23T18:15:39.694Z,16.80
2022-10-23T18:18:08.166Z,16.12
2022-10-23T18:20:39.741Z,16.15
2022-10-23T18:23:06.951Z,16.80
2022-10-23T18:25:34.455Z,17.05
2022-10-23T18:28:02.661Z,16.90
2022-10-23T18:30:29.702Z,16.78
2022-10-23T18:32:58.407Z,17.06
2022-10-23T18:35:25.640Z,16.67
2022-10-23T18:37:52.528Z,16.68
2022-10-23T18:40:20.544Z,16.57
2022-10-23T18:42:48.827Z,17.07
2022-10-23T18:45:15.819Z,16.71
2022-10-23T18:47:43.388Z,16.32
2022-10-23T18:50:10.494Z,15.88
2022-10-23T18:52:37.305Z,16.07
2022-10-23T18:55:06.214Z,15.78
2022-10-23T18:57:33.838Z,16.55
2022-10-23T19:00:01.526Z,16.80
2022-10-23T19:02:28.868Z,16.95
2022-10-23T19:04:56.032Z,16.71
2022-10-23T19:07:22.919Z,16.90
2022-10-23T19:09:49.705Z,17.32
2022-10-23T19:12:18.077Z,17.20
2022-10-23T19:14:45.511Z,17.33
2022-10-23T19:17:18.667Z,17.38
2022-10-23T19:19:50.268Z,17.29
2022-10-23T19:22:17.431Z,17.37
2022-10-23T19:24:46.007Z,17.38
2022-10-23T19:27:14.200Z,17.20
2022-10-23T19:29:43.589Z,16.61
2022-10-23T19:32:11.444Z,16.95
2022-10-23T19:34:40.915Z,17.03
2022-10-23T19:37:08.350Z,17.08
2022-10-23T19:39:36.028Z,16.91
2022-10-23T19:42:04.228Z,17.07
2022-10-23T19:44:32.140Z,17.15
2022-10-23T19:46:59.023Z,17.23
2022-10-23T19:49:26.051Z,17.12
2022-10-23T19:51:54.030Z,16.94
2022-10-23T19:54:22.224Z,17.05
2022-10-23T19:56:49.347Z,16.94
2022-10-23T19:59:16.668Z,16.78
2022-10-23T20:01:48.768Z,16.90
2022-10-23T20:04:17.017Z,16.84
2022-10-23T20:06:44.279Z,16.84
2022-10-23T20:09:11.326Z,16.86
2022-10-23T20:11:39.925Z,16.61
2022-10-23T20:14:07.722Z,16.98
2022-10-23T20:16:39.003Z,16.12
2022-10-23T20:19:14.591Z,15.99
2022-10-23T20:21:45.881Z,15.96
2022-10-23T20:24:15.012Z,16.52
2022-10-23T20:26:46.635Z,16.26
2022-10-23T20:29:13.963Z,15.61
2022-10-23T20:31:40.862Z,15.42
2022-10-23T20:34:08.716Z,15.33
2022-10-23T20:36:37.957Z,15.34
2022-10-23T20:39:10.492Z,15.88
2022-10-23T20:41:39.898Z,16.05
2022-10-23T20:44:08.642Z,15.87
2022-10-23T20:46:36.342Z,15.76
2022-10-23T20:49:03.859Z,15.76
2022-10-23T20:51:32.229Z,16.13
2022-10-23T20:53:59.588Z,16.24
2022-10-23T20:56:44.284Z,15.89
2022-10-23T20:59:14.697Z,15.95
2022-10-23T21:01:42.888Z,15.19
2022-10-23T21:04:11.978Z,15.84
2022-10-23T21:06:51.924Z,15.67
2022-10-23T21:09:25.849Z,15.17
2022-10-23T21:11:54.371Z,16.20
2022-10-23T21:14:23.301Z,16.06
2022-10-23T21:16:52.849Z,16.05
2022-10-23T21:19:19.897Z,16.11
2022-10-23T21:21:48.756Z,15.96
2022-10-23T21:24:16.416Z,15.65
2022-10-23T21:26:44.201Z,15.58
2022-10-23T21:29:20.127Z,15.96
2022-10-23T21:31:55.402Z,15.49
2022-10-23T21:34:22.587Z,16.09
2022-10-23T21:39:39.255Z,15.32
2022-10-23T21:42:08.064Z,15.34
2022-10-23T21:44:34.872Z,15.04
2022-10-23T21:47:01.774Z,14.75
2022-10-23T21:49:28.566Z,15.34
2022-10-23T21:51:55.438Z,15.14
2022-10-23T21:54:22.701Z,15.29
2022-10-23T21:56:50.760Z,15.26
2022-10-23T21:59:18.629Z,15.01
2022-10-23T22:01:48.754Z,15.31
2022-10-23T22:04:17.507Z,15.66
2022-10-23T22:06:45.244Z,15.29
2022-10-23T22:09:13.447Z,15.17
2022-10-23T22:11:40.409Z,14.94
2022-10-23T22:14:07.285Z,15.18
2022-10-23T22:16:34.242Z,15.43
2022-10-23T22:19:01.448Z,14.92
2022-10-23T22:21:29.786Z,14.85
2022-10-23T22:23:59.079Z,15.43
2022-10-23T22:26:27.911Z,15.53
2022-10-23T22:28:56.151Z,15.57
2022-10-23T22:31:25.289Z,15.18
2022-10-23T22:33:52.542Z,15.49
2022-10-23T22:36:19.410Z,15.32
2022-10-23T22:38:46.280Z,15.47
2022-10-23T22:41:13.783Z,15.15
2022-10-23T22:43:40.716Z,15.25
2022-10-23T22:46:08.994Z,15.36
2022-10-23T22:48:36.583Z,15.62
2022-10-23T22:51:06.307Z,15.76
2022-10-23T22:53:35.316Z,16.09
2022-10-23T22:56:05.703Z,15.83
2022-10-23T22:58:32.423Z,16.12
2022-10-23T23:01:04.220Z,15.78
2022-10-23T23:03:31.681Z,15.57
2022-10-23T23:05:58.621Z,16.06
2022-10-23T23:08:25.600Z,16.18
2022-10-23T23:10:58.687Z,16.30
2022-10-23T23:13:25.847Z,16.22
2022-10-23T23:15:53.141Z,16.46
2022-10-23T23:18:20.716Z,15.75
2022-10-23T23:20:49.554Z,15.99
2022-10-23T23:23:16.730Z,15.90
2022-10-23T23:25:46.126Z,16.15
2022-10-23T23:28:16.144Z,16.18
2022-10-23T23:30:43.838Z,15.74
2022-10-23T23:33:11.664Z,16.12
2022-10-23T23:35:42.279Z,16.06
2022-10-23T23:38:09.443Z,16.03
2022-10-23T23:40:37.673Z,16.08
2022-10-23T23:43:04.974Z,15.62
2022-10-23T23:45:34.638Z,15.77
2022-10-23T23:48:02.211Z,15.46
2022-10-23T23:50:31.147Z,15.52
2022-10-23T23:52:58.039Z,15.43
2022-10-23T23:55:26.406Z,14.77
2022-10-23T23:57:57.264Z,15.25
